CST,Max TemperatureF,Mean TemperatureF,Min TemperatureF,Max Dew PointF,MeanDew PointF,Min DewpointF,Max Humidity, Mean Humidity, Min Humidity, Max Sea Level PressureIn, Mean Sea Level PressureIn, Min Sea Level PressureIn, Max VisibilityMiles, Mean VisibilityMiles, Min VisibilityMiles, Max Wind SpeedMPH, Mean Wind SpeedMPH, Max Gust SpeedMPH,PrecipitationIn, CloudCover, Events, WindDirDegrees
2012-12-1,,,,,,,,,,,,,,,,,,,,,,
2012-12-2,,,,,,,,,,,,,,,,,,,,,,
2012-12-3,,,,,,,,,,,,,,,,,,,,,,
2012-12-4,,,,,,,,,,,,,,,,,,,,,,
2012-12-5,59,46,34,49,40,34,100,81,47,30.36,30.28,30.18,10,8,0,9,3,,0.00,1,Fog,45
2012-12-6,54,44,35,52,45,35,100,92,75,30.17,30.06,29.97,10,9,4,8,3,,0.00,6,Rain,120
2012-12-7,59,56,52,60,57,52,100,100,99,29.97,29.91,29.86,10,5,1,8,3,,0.80,8,Rain,200
2012-12-8,60,56,51,60,56,50,100,96,83,29.98,29.93,29.86,10,6,4,13,6,,0.02,8,Rain,359
2012-12-9,67,59,51,63,58,52,100,95,81,29.96,29.84,29.73,10,8,2,16,6,24,1.04,7,Rain,207
2012-12-10,53,43,33,52,36,27,99,87,76,30.06,29.89,29.75,10,10,5,21,11,33,0.00,8,Rain,333
2012-12-11,41,34,28,30,26,23,99,74,50,30.29,30.17,30.06,10,10,10,10,5,,0.00,3,,310
2012-12-12,46,35,24,33,29,24,100,82,48,30.40,30.34,30.29,10,10,10,5,1,,0.00,0,,77
2012-12-13,54,38,23,35,28,22,100,77,29,30.42,30.35,30.29,10,9,5,6,1,,0.00,0,,180
2012-12-14,59,44,28,40,31,25,90,60,32,30.33,30.23,30.11,10,10,10,9,3,,0.00,0,,183
2012-12-15,61,54,46,58,50,39,97,86,67,30.11,29.92,29.80,10,10,5,21,8,29,0.05,7,Rain,194
2012-12-16,63,58,53,59,56,52,100,87,69,29.80,29.75,29.68,10,10,2,17,8,17,0.00,2,,214
2012-12-17,62,52,43,58,51,40,100,89,54,29.80,29.68,29.57,10,9,3,25,8,32,0.03,6,Rain,245
2012-12-18,58,48,38,41,38,34,91,68,42,29.92,29.86,29.80,10,10,7,15,9,22,0.00,2,,230
2012-12-19,62,48,34,50,43,35,100,78,56,30.03,29.94,29.75,10,9,4,18,4,26,0.00,1,,137
2012-12-20,61,48,34,56,39,25,99,74,54,29.87,29.62,29.43,10,9,4,34,21,48,0.51,8,Rain-Snow,240
2012-12-21,40,35,30,25,21,19,70,59,43,30.28,30.10,29.88,10,10,10,28,19,36,0.00,1,,297
2012-12-22,48,36,23,25,21,18,88,59,32,30.34,30.23,30.05,10,10,10,8,4,,0.00,0,,224
2012-12-23,58,48,37,50,38,26,100,68,53,30.05,29.96,29.86,10,9,4,15,9,18,0.00,2,,220
2012-12-24,53,44,35,53,43,32,100,93,79,30.07,29.90,29.78,10,6,0,16,5,17,0.00,7,Fog-Rain,329
2012-12-25,38,36,33,36,32,30,99,85,75,30.15,30.03,29.68,10,8,4,24,11,31,0.06,8,Rain,48
2012-12-26,36,34,33,36,33,31,100,95,89,30.11,29.78,29.53,10,6,0,28,17,36,0.53,8,Rain-Snow,347
2012-12-27,33,32,31,32,30,27,96,89,77,30.22,30.16,30.10,10,10,7,14,5,16,0.00,8,,332
2012-12-28,40,36,32,37,34,32,100,93,80,30.11,29.98,29.78,10,7,1,9,3,,0.12,6,Rain-Snow,100
2012-12-29,34,30,27,34,30,23,100,91,75,30.37,30.09,29.79,10,7,2,17,9,25,0.00,7,Snow,311
2012-12-30,39,30,21,30,27,21,99,79,65,30.54,30.43,30.34,10,10,5,9,4,,0.00,0,,204
2012-12-31,42,36,31,37,32,28,100,83,67,30.34,30.20,30.07,10,8,2,9,5,,0.24,6,Rain-Snow,197